Terminal Aerodrome Forecast
Issued by NWS

Home | Current Version | Previous Version | Text Only | Print | Product List | Glossary On
Versions: 1 2 3 4 5 6 7 8 9 10 11 12 13 14
000
FTUS41 KBTV 191700
TAFRUT
TAF
KRUT 191728Z 1918/2018 35014G20KT P6SM BKN040
     FM200000 34004KT P6SM SKC
     FM200600 13009KT P6SM SKC
     FM201500 18005KT P6SM SKC
      AMD LTD TO CLD VIS AND WIND=

USA.gov is the U.S. government's official web portal to all federal, state and local government web resources and services.